Time;durP1;ratioP1;P1;durP2;ratioP2;P2;SDS_P1;SDS_P2;PMS_P1;PMS_P2;Temp;Humidity;BMP_temperature;BMP_pressure;BME280_temperature;BME280_humidity;BME280_pressure;Samples;Min_cycle;Max_cycle;Signal;HPM_P1;HPM_P2
2021/05/24 00:01:13;;;;;;;;;;;18.40;50.70;;;;;;461359;258;1390;-45
2021/05/24 00:03:14;;;;;;;;;;;18.40;50.70;;;;;;461247;258;1146;-44
2021/05/24 00:05:15;;;;;;;;;;;18.60;50.50;;;;;;461390;258;1087;-45
2021/05/24 00:07:17;;;;;;;;;;;19.00;49.30;;;;;;461228;258;1675;-44
2021/05/24 00:09:18;;;;;;;;;;;19.50;48.20;;;;;;461094;258;1082;-45
2021/05/24 00:11:19;;;;;;;;;;;19.80;47.40;;;;;;461563;258;1359;-44
2021/05/24 00:13:22;;;;;;;;;;;20.00;46.90;;;;;;461569;258;1053;-45
2021/05/24 00:15:23;;;;;;;;;;;20.10;46.40;;;;;;461476;258;2195;-45
2021/05/24 00:17:24;;;;;;;;;;;20.20;46.20;;;;;;461245;258;1303;-45
2021/05/24 00:19:26;;;;;;;;;;;20.30;45.90;;;;;;461588;258;1243;-45
2021/05/24 00:21:27;;;;;;;;;;;20.40;45.70;;;;;;461431;258;1055;-45
2021/05/24 00:23:28;;;;;;;;;;;20.50;45.50;;;;;;461205;258;1147;-45
2021/05/24 00:25:30;;;;;;;;;;;20.60;45.40;;;;;;461547;258;1060;-45
2021/05/24 00:27:31;;;;;;;;;;;20.70;45.10;;;;;;461090;258;1093;-45
2021/05/24 00:29:32;;;;;;;;;;;20.70;45.00;;;;;;461205;258;1076;-45
2021/05/24 00:31:33;;;;;;;;;;;20.80;44.90;;;;;;461223;258;1094;-44
2021/05/24 00:33:34;;;;;;;;;;;20.80;44.80;;;;;;461254;258;1404;-45
2021/05/24 00:35:36;;;;;;;;;;;20.90;44.80;;;;;;461493;258;2213;-45
2021/05/24 00:37:37;;;;;;;;;;;20.90;44.60;;;;;;461483;258;1046;-45
2021/05/24 00:39:38;;;;;;;;;;;21.00;44.60;;;;;;461361;258;1073;-45
2021/05/24 00:41:40;;;;;;;;;;;20.90;44.50;;;;;;461202;258;1443;-45
2021/05/24 00:43:41;;;;;;;;;;;21.00;44.50;;;;;;461227;258;1062;-45
2021/05/24 00:45:42;;;;;;;;;;;21.10;44.40;;;;;;461212;258;1200;-45
2021/05/24 00:47:43;;;;;;;;;;;21.10;44.40;;;;;;461319;258;1265;-45
2021/05/24 00:49:45;;;;;;;;;;;21.10;44.30;;;;;;461464;258;1066;-45
2021/05/24 00:51:46;;;;;;;;;;;21.10;44.20;;;;;;461352;258;1141;-45
2021/05/24 00:53:47;;;;;;;;;;;21.20;44.20;;;;;;461390;258;1120;-45
2021/05/24 00:55:49;;;;;;;;;;;21.20;44.10;;;;;;461238;258;2149;-45
2021/05/24 00:57:50;;;;;;;;;;;21.20;44.00;;;;;;461154;258;1106;-45
2021/05/24 00:59:51;;;;;;;;;;;21.30;44.00;;;;;;461175;258;1167;-45
2021/05/24 01:01:53;;;;;;;;;;;21.30;43.90;;;;;;461280;258;1144;-45
2021/05/24 01:03:56;;;;;;;;;;;21.40;43.90;;;;;;461350;258;1165;-45
2021/05/24 01:05:55;;;;;;;;;;;21.30;43.80;;;;;;461460;258;2252;-44
2021/05/24 01:07:56;;;;;;;;;;;21.40;43.80;;;;;;461171;258;1362;-45
2021/05/24 01:09:58;;;;;;;;;;;21.40;43.80;;;;;;461178;258;1109;-45
2021/05/24 01:11:59;;;;;;;;;;;21.40;43.70;;;;;;461163;258;2233;-44
2021/05/24 01:14:00;;;;;;;;;;;21.40;43.70;;;;;;461609;258;1079;-45
2021/05/24 01:16:01;;;;;;;;;;;21.50;43.70;;;;;;461179;258;2161;-45
2021/05/24 01:18:03;;;;;;;;;;;21.50;43.60;;;;;;461537;258;1182;-45
2021/05/24 01:20:04;;;;;;;;;;;21.50;43.60;;;;;;461100;258;1222;-45
2021/05/24 01:22:09;;;;;;;;;;;21.50;43.50;;;;;;461495;258;1148;-45
2021/05/24 01:24:07;;;;;;;;;;;21.50;43.50;;;;;;461078;258;2427;-45
2021/05/24 01:26:08;;;;;;;;;;;21.50;43.50;;;;;;461271;258;1412;-45
2021/05/24 01:28:09;;;;;;;;;;;21.60;43.50;;;;;;461225;258;1666;-45
2021/05/24 01:30:10;;;;;;;;;;;21.60;43.50;;;;;;461559;258;1112;-45
2021/05/24 01:32:12;;;;;;;;;;;21.60;43.50;;;;;;461073;258;1174;-45
2021/05/24 01:34:13;;;;;;;;;;;21.60;43.60;;;;;;461138;258;1159;-44
2021/05/24 01:36:14;;;;;;;;;;;21.60;43.50;;;;;;461210;258;2160;-45
2021/05/24 01:38:16;;;;;;;;;;;21.10;44.30;;;;;;461182;258;1351;-45
2021/05/24 01:40:17;;;;;;;;;;;20.60;45.50;;;;;;461280;258;1645;-45
2021/05/24 01:42:18;;;;;;;;;;;20.30;46.50;;;;;;461486;258;1268;-45
2021/05/24 01:44:19;;;;;;;;;;;20.00;47.10;;;;;;461359;258;1102;-45
2021/05/24 01:46:21;;;;;;;;;;;19.90;47.60;;;;;;461222;258;1461;-45
2021/05/24 01:48:22;;;;;;;;;;;19.70;47.90;;;;;;461105;258;1241;-45
2021/05/24 01:50:23;;;;;;;;;;;19.60;48.20;;;;;;461153;258;1160;-45
2021/05/24 01:52:24;;;;;;;;;;;19.50;48.40;;;;;;460976;258;1213;-44
2021/05/24 01:54:26;;;;;;;;;;;19.50;48.70;;;;;;461143;258;1134;-44
2021/05/24 01:56:27;;;;;;;;;;;19.40;48.80;;;;;;461192;258;2156;-44
2021/05/24 01:58:30;;;;;;;;;;;19.30;48.90;;;;;;461178;258;1210;-45
2021/05/24 02:00:30;;;;;;;;;;;19.30;49.10;;;;;;461161;258;2653;-44
2021/05/24 02:02:31;;;;;;;;;;;19.20;49.20;;;;;;461291;258;1124;-44
2021/05/24 02:04:34;;;;;;;;;;;19.20;49.30;;;;;;461301;258;1149;-44
2021/05/24 02:06:33;;;;;;;;;;;19.20;49.40;;;;;;461028;258;2144;-44
2021/05/24 02:08:35;;;;;;;;;;;19.20;49.40;;;;;;461577;258;1057;-44
2021/05/24 02:10:36;;;;;;;;;;;19.10;49.50;;;;;;461451;258;1091;-45
2021/05/24 02:12:37;;;;;;;;;;;19.10;49.50;;;;;;461519;258;1142;-45
2021/05/24 02:14:39;;;;;;;;;;;19.10;49.70;;;;;;461455;258;1095;-45
2021/05/24 02:16:40;;;;;;;;;;;19.00;49.70;;;;;;461252;258;2144;-45
2021/05/24 02:18:41;;;;;;;;;;;19.00;49.60;;;;;;461086;258;1063;-44
2021/05/24 02:20:42;;;;;;;;;;;19.00;49.70;;;;;;461173;258;1213;-44
2021/05/24 02:22:44;;;;;;;;;;;19.00;49.80;;;;;;461105;258;1062;-44
2021/05/24 02:24:45;;;;;;;;;;;18.90;49.80;;;;;;461561;258;1130;-44
2021/05/24 02:26:46;;;;;;;;;;;19.00;49.90;;;;;;461494;258;1158;-45
2021/05/24 02:28:47;;;;;;;;;;;18.90;49.80;;;;;;461156;258;1131;-45
2021/05/24 02:30:49;;;;;;;;;;;18.90;49.80;;;;;;461193;258;1230;-45
2021/05/24 02:32:50;;;;;;;;;;;18.90;49.90;;;;;;461400;258;1087;-44
2021/05/24 02:34:51;;;;;;;;;;;18.90;49.90;;;;;;461425;258;1119;-44
2021/05/24 02:36:53;;;;;;;;;;;18.90;49.90;;;;;;461120;258;2204;-45
2021/05/24 02:38:54;;;;;;;;;;;18.80;50.00;;;;;;461194;258;1170;-44
2021/05/24 02:40:55;;;;;;;;;;;18.80;50.10;;;;;;461501;258;1096;-44
2021/05/24 02:42:56;;;;;;;;;;;18.80;50.10;;;;;;461202;258;1125;-44
2021/05/24 02:44:58;;;;;;;;;;;18.80;50.20;;;;;;461104;258;1130;-44
2021/05/24 02:46:59;;;;;;;;;;;18.80;50.20;;;;;;461253;258;1087;-45
2021/05/24 02:49:00;;;;;;;;;;;18.80;50.20;;;;;;461528;258;1099;-44
2021/05/24 02:51:02;;;;;;;;;;;18.80;50.20;;;;;;461225;258;1206;-45
2021/05/24 02:53:03;;;;;;;;;;;18.80;50.30;;;;;;461569;258;1099;-44
2021/05/24 02:55:04;;;;;;;;;;;18.70;50.30;;;;;;461242;258;1063;-44
2021/05/24 02:57:05;;;;;;;;;;;18.80;50.30;;;;;;461595;258;2164;-45
2021/05/24 02:59:07;;;;;;;;;;;18.80;50.30;;;;;;461176;258;1076;-45
2021/05/24 03:01:08;;;;;;;;;;;18.70;50.20;;;;;;461157;258;1140;-45
2021/05/24 03:03:12;;;;;;;;;;;18.70;50.30;;;;;;461166;258;1117;-44
2021/05/24 03:05:11;;;;;;;;;;;18.70;50.20;;;;;;461270;258;1304;-44
2021/05/24 03:07:12;;;;;;;;;;;18.70;50.30;;;;;;461204;258;1219;-44
2021/05/24 03:09:13;;;;;;;;;;;18.70;50.40;;;;;;461418;258;1079;-44
2021/05/24 03:11:14;;;;;;;;;;;18.70;50.40;;;;;;461100;258;1244;-44
2021/05/24 03:13:16;;;;;;;;;;;18.70;50.40;;;;;;461477;258;1066;-44
2021/05/24 03:15:17;;;;;;;;;;;18.70;50.30;;;;;;461339;258;1056;-44
2021/05/24 03:17:18;;;;;;;;;;;18.70;50.30;;;;;;461323;258;2195;-44
2021/05/24 03:19:19;;;;;;;;;;;18.70;50.40;;;;;;461282;258;1071;-44
2021/05/24 03:21:21;;;;;;;;;;;18.70;50.40;;;;;;461085;258;1695;-44
2021/05/24 03:23:22;;;;;;;;;;;18.60;50.30;;;;;;461156;258;1102;-44
2021/05/24 03:25:23;;;;;;;;;;;18.60;50.40;;;;;;461182;258;1223;-45
2021/05/24 03:27:25;;;;;;;;;;;18.60;50.50;;;;;;461262;258;1515;-45
2021/05/24 03:29:26;;;;;;;;;;;18.50;50.50;;;;;;461254;258;1055;-44
2021/05/24 03:31:27;;;;;;;;;;;18.50;50.60;;;;;;461335;258;1521;-44
2021/05/24 03:33:28;;;;;;;;;;;18.60;50.60;;;;;;461450;258;1159;-44
2021/05/24 03:35:30;;;;;;;;;;;18.60;50.60;;;;;;461397;258;1222;-45
2021/05/24 03:37:31;;;;;;;;;;;18.50;50.60;;;;;;461263;258;2219;-44
2021/05/24 03:39:32;;;;;;;;;;;18.50;50.60;;;;;;461454;258;1177;-45
2021/05/24 03:41:34;;;;;;;;;;;18.50;50.60;;;;;;461286;258;1487;-44
2021/05/24 03:43:35;;;;;;;;;;;18.50;50.60;;;;;;461415;258;1060;-45
2021/05/24 03:45:38;;;;;;;;;;;18.50;50.70;;;;;;461576;258;1041;-44
2021/05/24 03:47:37;;;;;;;;;;;18.90;49.90;;;;;;460989;258;1909;-44
2021/05/24 03:49:39;;;;;;;;;;;19.30;48.60;;;;;;461201;258;1054;-44
2021/05/24 03:51:40;;;;;;;;;;;19.70;47.60;;;;;;461154;258;1237;-44
2021/05/24 03:53:41;;;;;;;;;;;20.00;47.00;;;;;;461248;258;1233;-44
2021/05/24 03:55:42;;;;;;;;;;;20.10;46.50;;;;;;461272;258;1158;-45
2021/05/24 03:57:44;;;;;;;;;;;20.30;46.20;;;;;;461010;258;2161;-44
2021/05/24 03:59:45;;;;;;;;;;;20.40;45.90;;;;;;461497;258;1068;-44
2021/05/24 04:01:49;;;;;;;;;;;20.50;45.80;;;;;;461497;258;1108;-45
2021/05/24 04:03:50;;;;;;;;;;;20.60;45.50;;;;;;461073;258;1816;-45
2021/05/24 04:05:53;;;;;;;;;;;20.60;45.30;;;;;;460981;258;2292;-45
2021/05/24 04:07:52;;;;;;;;;;;20.70;45.10;;;;;;460843;258;2359;-45
2021/05/24 04:09:52;;;;;;;;;;;20.80;45.10;;;;;;461009;258;1747;-45
2021/05/24 04:11:53;;;;;;;;;;;20.80;44.90;;;;;;461386;258;1588;-45
2021/05/24 04:13:55;;;;;;;;;;;20.90;44.80;;;;;;461362;258;1091;-44
2021/05/24 04:15:57;;;;;;;;;;;20.90;44.70;;;;;;461257;258;2404;-45
2021/05/24 04:17:59;;;;;;;;;;;20.90;44.60;;;;;;461181;258;2429;-45
2021/05/24 04:19:58;;;;;;;;;;;21.00;44.60;;;;;;461076;258;1855;-44
2021/05/24 04:21:59;;;;;;;;;;;21.00;44.50;;;;;;461132;258;1312;-45
2021/05/24 04:24:00;;;;;;;;;;;21.10;44.50;;;;;;461585;258;1092;-45
2021/05/24 04:26:02;;;;;;;;;;;21.10;44.40;;;;;;461332;258;1734;-45
2021/05/24 04:28:03;;;;;;;;;;;21.20;44.30;;;;;;461208;258;1102;-45
2021/05/24 04:30:04;;;;;;;;;;;21.20;44.30;;;;;;461109;258;1081;-45
2021/05/24 04:32:05;;;;;;;;;;;21.20;44.20;;;;;;461206;258;1264;-45
2021/05/24 04:34:07;;;;;;;;;;;21.20;44.10;;;;;;461082;258;1212;-45
2021/05/24 04:36:08;;;;;;;;;;;21.20;44.10;;;;;;461160;258;2200;-45
2021/05/24 04:38:09;;;;;;;;;;;21.30;44.10;;;;;;461205;258;1179;-45
2021/05/24 04:40:11;;;;;;;;;;;21.30;44.00;;;;;;461554;258;1119;-45
2021/05/24 04:42:12;;;;;;;;;;;21.30;43.90;;;;;;461448;258;1170;-45
2021/05/24 04:44:19;;;;;;;;;;;21.30;43.90;;;;;;461313;258;1071;-44
2021/05/24 04:46:14;;;;;;;;;;;21.30;43.80;;;;;;460836;258;2485;-45
2021/05/24 04:48:16;;;;;;;;;;;21.40;43.80;;;;;;461159;258;1191;-45
2021/05/24 04:50:17;;;;;;;;;;;21.40;43.80;;;;;;461184;258;1081;-44
2021/05/24 04:52:18;;;;;;;;;;;21.40;43.70;;;;;;461271;258;1208;-45
2021/05/24 04:54:20;;;;;;;;;;;21.40;43.70;;;;;;461205;258;1091;-44
2021/05/24 04:56:21;;;;;;;;;;;21.50;43.70;;;;;;461272;258;2204;-45
2021/05/24 04:58:22;;;;;;;;;;;21.50;43.60;;;;;;461500;258;1093;-45
2021/05/24 05:00:23;;;;;;;;;;;21.60;43.60;;;;;;461310;258;1048;-45
2021/05/24 05:02:25;;;;;;;;;;;21.60;43.60;;;;;;461089;258;1193;-45
2021/05/24 05:04:26;;;;;;;;;;;21.60;43.50;;;;;;461325;258;1055;-45
2021/05/24 05:06:27;;;;;;;;;;;21.60;43.60;;;;;;461356;258;1326;-45
2021/05/24 05:08:28;;;;;;;;;;;21.60;43.60;;;;;;461234;258;1196;-45
2021/05/24 05:10:30;;;;;;;;;;;21.50;43.50;;;;;;461198;258;1095;-45
2021/05/24 05:12:31;;;;;;;;;;;21.10;44.50;;;;;;461196;258;1351;-45
2021/05/24 05:14:32;;;;;;;;;;;20.60;45.70;;;;;;461542;258;1071;-44
2021/05/24 05:16:34;;;;;;;;;;;20.30;46.60;;;;;;461363;258;2141;-44
2021/05/24 05:18:35;;;;;;;;;;;20.00;47.10;;;;;;461455;258;1043;-45
2021/05/24 05:20:36;;;;;;;;;;;19.80;47.60;;;;;;461116;258;1152;-45
2021/05/24 05:22:37;;;;;;;;;;;19.70;48.00;;;;;;461131;258;1328;-44
2021/05/24 05:24:39;;;;;;;;;;;19.60;48.30;;;;;;461533;258;1055;-45
2021/05/24 05:26:40;;;;;;;;;;;19.50;48.50;;;;;;461058;258;1440;-45
2021/05/24 05:28:41;;;;;;;;;;;19.40;48.70;;;;;;461283;258;1080;-45
2021/05/24 05:30:43;;;;;;;;;;;19.30;48.80;;;;;;461370;258;1279;-44
2021/05/24 05:32:44;;;;;;;;;;;19.30;49.00;;;;;;461602;258;1211;-45
2021/05/24 05:34:45;;;;;;;;;;;19.20;49.10;;;;;;461622;258;1128;-44
2021/05/24 05:36:46;;;;;;;;;;;19.20;49.20;;;;;;461261;258;2212;-44
2021/05/24 05:38:48;;;;;;;;;;;19.20;49.30;;;;;;461198;258;1145;-44
2021/05/24 05:40:51;;;;;;;;;;;19.20;49.40;;;;;;461586;258;1095;-44
2021/05/24 05:42:50;;;;;;;;;;;19.10;49.50;;;;;;461030;258;2088;-44
2021/05/24 05:44:51;;;;;;;;;;;19.10;49.50;;;;;;461451;258;1126;-45
2021/05/24 05:46:53;;;;;;;;;;;19.10;49.60;;;;;;461067;258;1368;-44
2021/05/24 05:48:54;;;;;;;;;;;19.00;49.70;;;;;;461187;258;1076;-45
2021/05/24 05:50:55;;;;;;;;;;;19.00;49.80;;;;;;461496;258;1671;-45
2021/05/24 05:52:58;;;;;;;;;;;19.00;49.80;;;;;;461134;258;1183;-44
2021/05/24 05:54:58;;;;;;;;;;;19.00;49.90;;;;;;460997;258;2805;-44
2021/05/24 05:56:59;;;;;;;;;;;19.00;49.80;;;;;;461045;258;2249;-44
2021/05/24 05:59:01;;;;;;;;;;;18.90;49.90;;;;;;461551;258;1067;-45
2021/05/24 06:01:03;;;;;;;;;;;18.90;50.00;;;;;;461364;258;1206;-44
2021/05/24 06:03:03;;;;;;;;;;;18.80;50.10;;;;;;461292;258;2381;-45
2021/05/24 06:05:05;;;;;;;;;;;18.80;50.10;;;;;;461235;258;1099;-45
2021/05/24 06:07:06;;;;;;;;;;;18.80;50.00;;;;;;461188;258;1338;-45
2021/05/24 06:09:07;;;;;;;;;;;18.80;50.10;;;;;;461224;258;1220;-45
2021/05/24 06:11:09;;;;;;;;;;;18.80;50.10;;;;;;461012;258;1212;-44
2021/05/24 06:13:10;;;;;;;;;;;18.80;50.10;;;;;;461100;258;1067;-45
2021/05/24 06:15:13;;;;;;;;;;;18.80;50.10;;;;;;461049;258;1105;-44
2021/05/24 06:17:13;;;;;;;;;;;18.80;50.10;;;;;;461002;258;2204;-45
2021/05/24 06:19:14;;;;;;;;;;;18.80;50.20;;;;;;461140;258;1059;-45
2021/05/24 06:21:15;;;;;;;;;;;18.80;50.20;;;;;;461540;258;1092;-44
2021/05/24 06:23:16;;;;;;;;;;;18.80;50.20;;;;;;461495;258;1171;-44
2021/05/24 06:25:18;;;;;;;;;;;18.80;50.20;;;;;;461185;258;1252;-45
2021/05/24 06:27:19;;;;;;;;;;;18.70;50.20;;;;;;461354;258;1147;-45
2021/05/24 06:29:22;;;;;;;;;;;18.70;50.30;;;;;;461184;258;1266;-44
2021/05/24 06:31:23;;;;;;;;;;;18.70;50.40;;;;;;461155;258;1068;-45
2021/05/24 06:33:25;;;;;;;;;;;18.70;50.40;;;;;;461230;258;1070;-44
2021/05/24 06:35:26;;;;;;;;;;;18.70;50.40;;;;;;461344;258;1064;-45
2021/05/24 06:37:27;;;;;;;;;;;18.70;50.50;;;;;;461366;258;2208;-44
2021/05/24 06:39:29;;;;;;;;;;;18.70;50.40;;;;;;461226;258;1280;-44
2021/05/24 06:41:30;;;;;;;;;;;18.70;50.40;;;;;;461253;258;1098;-45
2021/05/24 06:43:31;;;;;;;;;;;18.70;50.40;;;;;;461119;258;1084;-45
2021/05/24 06:45:33;;;;;;;;;;;18.60;50.40;;;;;;461280;258;1109;-44
2021/05/24 06:47:34;;;;;;;;;;;18.70;50.40;;;;;;461292;258;1113;-44
2021/05/24 06:49:35;;;;;;;;;;;18.70;50.40;;;;;;461120;258;1088;-44
2021/05/24 06:51:36;;;;;;;;;;;18.60;50.40;;;;;;461327;258;1186;-44
2021/05/24 06:53:38;;;;;;;;;;;18.70;50.50;;;;;;461189;258;1203;-45
2021/05/24 06:55:39;;;;;;;;;;;18.60;50.40;;;;;;461533;258;1145;-44
2021/05/24 06:57:40;;;;;;;;;;;18.60;50.50;;;;;;461359;258;2161;-44
2021/05/24 06:59:42;;;;;;;;;;;18.60;50.50;;;;;;461233;258;1349;-45
2021/05/24 07:01:43;;;;;;;;;;;18.60;50.60;;;;;;461133;258;1197;-45
2021/05/24 07:03:45;;;;;;;;;;;18.60;50.60;;;;;;461226;258;1089;-44
2021/05/24 07:05:46;;;;;;;;;;;18.60;50.60;;;;;;461232;258;1378;-44
2021/05/24 07:07:47;;;;;;;;;;;18.60;50.50;;;;;;461088;258;1082;-45
2021/05/24 07:09:48;;;;;;;;;;;18.60;50.60;;;;;;461082;258;1218;-44
2021/05/24 07:11:50;;;;;;;;;;;18.60;50.40;;;;;;461465;258;1195;-45
2021/05/24 07:13:51;;;;;;;;;;;18.60;50.40;;;;;;461536;258;1062;-44
2021/05/24 07:15:52;;;;;;;;;;;18.60;50.50;;;;;;461434;258;1208;-45
2021/05/24 07:17:55;;;;;;;;;;;18.60;50.50;;;;;;461227;258;2204;-44
2021/05/24 07:19:55;;;;;;;;;;;18.50;50.40;;;;;;461108;258;1462;-44
2021/05/24 07:21:56;;;;;;;;;;;18.60;50.50;;;;;;461560;258;1186;-44
2021/05/24 07:23:57;;;;;;;;;;;18.50;50.50;;;;;;461194;258;1178;-44
2021/05/24 07:25:59;;;;;;;;;;;18.50;50.70;;;;;;461208;258;1049;-44
2021/05/24 07:28:00;;;;;;;;;;;18.80;49.90;;;;;;461158;258;1133;-45
2021/05/24 07:30:01;;;;;;;;;;;19.30;48.60;;;;;;461551;258;1108;-44
2021/05/24 07:32:03;;;;;;;;;;;19.70;47.70;;;;;;461095;258;1065;-44
2021/05/24 07:34:04;;;;;;;;;;;19.90;47.00;;;;;;460987;258;1290;-45
2021/05/24 07:36:05;;;;;;;;;;;20.10;46.60;;;;;;461204;258;1127;-45
2021/05/24 07:38:08;;;;;;;;;;;20.20;46.20;;;;;;461088;258;2216;-45
2021/05/24 07:40:07;;;;;;;;;;;20.30;45.90;;;;;;461121;258;2270;-45
2021/05/24 07:42:09;;;;;;;;;;;20.40;45.70;;;;;;461330;258;1134;-45
2021/05/24 07:44:10;;;;;;;;;;;20.50;45.60;;;;;;461186;258;2236;-45
2021/05/24 07:46:11;;;;;;;;;;;20.60;45.40;;;;;;461197;258;1149;-44
2021/05/24 07:48:13;;;;;;;;;;;20.60;45.30;;;;;;461367;258;1365;-45
2021/05/24 07:50:14;;;;;;;;;;;20.70;45.10;;;;;;461203;258;1075;-45
2021/05/24 07:52:15;;;;;;;;;;;20.80;45.10;;;;;;461155;258;1261;-44
2021/05/24 07:54:16;;;;;;;;;;;20.80;45.00;;;;;;461243;258;1100;-45
2021/05/24 07:56:18;;;;;;;;;;;20.90;44.90;;;;;;461224;258;1299;-45
2021/05/24 07:58:20;;;;;;;;;;;20.90;44.80;;;;;;461294;258;2204;-45
2021/05/24 08:00:25;;;;;;;;;;;20.90;44.70;;;;;;461273;258;2454;-44
2021/05/24 08:02:22;;;;;;;;;;;21.00;44.60;;;;;;461037;258;2280;-45
2021/05/24 08:04:23;;;;;;;;;;;21.00;44.50;;;;;;461450;258;1128;-44
2021/05/24 08:06:24;;;;;;;;;;;21.10;44.50;;;;;;461326;258;1124;-45
2021/05/24 08:08:25;;;;;;;;;;;21.10;44.40;;;;;;461151;258;1089;-45
2021/05/24 08:10:27;;;;;;;;;;;21.10;44.40;;;;;;461350;258;1301;-45
2021/05/24 08:12:28;;;;;;;;;;;21.20;44.30;;;;;;461219;258;1088;-45
2021/05/24 08:14:29;;;;;;;;;;;21.20;44.20;;;;;;461178;258;1067;-45
2021/05/24 08:16:31;;;;;;;;;;;21.20;44.20;;;;;;461609;258;1057;-45
2021/05/24 08:18:32;;;;;;;;;;;21.20;44.10;;;;;;461548;258;2212;-45
2021/05/24 08:20:33;;;;;;;;;;;21.20;44.10;;;;;;461096;258;1127;-45
2021/05/24 08:22:34;;;;;;;;;;;21.30;44.00;;;;;;461394;258;1206;-45
2021/05/24 08:24:36;;;;;;;;;;;21.30;44.00;;;;;;461109;258;1071;-45
2021/05/24 08:26:37;;;;;;;;;;;21.30;44.00;;;;;;461050;258;1190;-45
2021/05/24 08:28:38;;;;;;;;;;;21.40;43.90;;;;;;461480;258;1060;-45
2021/05/24 08:30:40;;;;;;;;;;;21.40;43.80;;;;;;461234;258;1206;-45
2021/05/24 08:32:41;;;;;;;;;;;21.40;43.80;;;;;;461474;258;2232;-45
2021/05/24 08:34:42;;;;;;;;;;;21.40;43.80;;;;;;461331;258;1095;-45
2021/05/24 08:36:43;;;;;;;;;;;21.50;43.80;;;;;;461536;258;1254;-45
2021/05/24 08:38:45;;;;;;;;;;;21.50;43.80;;;;;;461476;258;2160;-45
2021/05/24 08:40:46;;;;;;;;;;;21.50;43.70;;;;;;461414;258;1200;-45
2021/05/24 08:42:48;;;;;;;;;;;21.50;43.70;;;;;;461135;258;1183;-45
2021/05/24 08:44:49;;;;;;;;;;;21.50;43.70;;;;;;461453;258;1565;-45
2021/05/24 08:46:50;;;;;;;;;;;21.50;43.60;;;;;;461141;258;1307;-45
2021/05/24 08:48:51;;;;;;;;;;;21.60;43.60;;;;;;461158;258;1156;-44
2021/05/24 08:50:52;;;;;;;;;;;21.50;43.70;;;;;;461046;258;1324;-45
2021/05/24 08:52:54;;;;;;;;;;;21.60;43.50;;;;;;461047;258;1201;-45
2021/05/24 08:54:55;;;;;;;;;;;21.30;44.10;;;;;;461495;258;1065;-45
2021/05/24 08:56:56;;;;;;;;;;;20.70;45.30;;;;;;461084;258;1292;-45
2021/05/24 08:58:57;;;;;;;;;;;20.30;46.30;;;;;;461441;258;2184;-45
2021/05/24 09:00:59;;;;;;;;;;;20.20;46.90;;;;;;461445;258;1141;-45
2021/05/24 09:03:01;;;;;;;;;;;19.90;47.40;;;;;;461278;258;1048;-44
2021/05/24 09:05:03;;;;;;;;;;;19.80;47.80;;;;;;461161;258;1094;-45
2021/05/24 09:07:04;;;;;;;;;;;19.70;48.00;;;;;;461577;258;1184;-45
2021/05/24 09:09:05;;;;;;;;;;;19.60;48.30;;;;;;461405;258;1084;-45
2021/05/24 09:11:06;;;;;;;;;;;19.50;48.60;;;;;;461133;258;1288;-44
2021/05/24 09:13:08;;;;;;;;;;;19.40;48.60;;;;;;461559;258;1219;-44
2021/05/24 09:15:11;;;;;;;;;;;19.40;48.70;;;;;;461463;258;1079;-45
2021/05/24 09:17:10;;;;;;;;;;;19.40;48.80;;;;;;460994;258;2196;-44
2021/05/24 09:19:12;;;;;;;;;;;19.30;49.00;;;;;;461051;258;2212;-45
2021/05/24 09:21:13;;;;;;;;;;;19.20;49.20;;;;;;460963;258;1154;-44
2021/05/24 09:23:14;;;;;;;;;;;19.20;49.30;;;;;;461119;258;1090;-44
2021/05/24 09:25:15;;;;;;;;;;;19.20;49.40;;;;;;461266;258;1202;-44
2021/05/24 09:27:17;;;;;;;;;;;19.20;49.40;;;;;;460997;258;1317;-44
2021/05/24 09:29:22;;;;;;;;;;;19.20;49.40;;;;;;461137;258;1102;-44
2021/05/24 09:31:21;;;;;;;;;;;19.10;49.40;;;;;;461160;258;2082;-44
2021/05/24 09:33:21;;;;;;;;;;;19.10;49.60;;;;;;461074;258;2154;-44
2021/05/24 09:35:22;;;;;;;;;;;19.00;49.70;;;;;;461168;258;1076;-45
2021/05/24 09:37:23;;;;;;;;;;;19.00;49.80;;;;;;461514;258;1298;-44
2021/05/24 09:39:25;;;;;;;;;;;19.00;49.80;;;;;;461280;258;2140;-45
2021/05/24 09:41:26;;;;;;;;;;;19.00;49.80;;;;;;461388;258;1293;-45
2021/05/24 09:43:28;;;;;;;;;;;19.00;49.80;;;;;;461195;258;1190;-45
2021/05/24 09:45:29;;;;;;;;;;;19.00;49.80;;;;;;461344;258;1063;-44
2021/05/24 09:47:30;;;;;;;;;;;18.90;49.80;;;;;;461425;258;1230;-44
2021/05/24 09:49:31;;;;;;;;;;;18.90;49.80;;;;;;461096;258;1073;-45
2021/05/24 09:51:33;;;;;;;;;;;18.90;49.80;;;;;;461187;258;1344;-44
2021/05/24 09:53:34;;;;;;;;;;;19.00;49.90;;;;;;461411;258;1156;-44
2021/05/24 09:55:36;;;;;;;;;;;18.90;50.10;;;;;;461462;258;1342;-44
2021/05/24 09:57:37;;;;;;;;;;;18.90;50.10;;;;;;461223;258;1106;-44
2021/05/24 09:59:38;;;;;;;;;;;18.90;50.10;;;;;;461531;258;2192;-45
2021/05/24 10:01:41;;;;;;;;;;;18.90;50.00;;;;;;461281;258;1677;-44
2021/05/24 10:03:41;;;;;;;;;;;18.90;50.00;;;;;;461194;258;2277;-44
2021/05/24 10:05:42;;;;;;;;;;;18.90;50.00;;;;;;461211;258;1247;-45
2021/05/24 10:07:43;;;;;;;;;;;18.80;50.10;;;;;;461538;258;1126;-45
2021/05/24 10:09:45;;;;;;;;;;;18.90;50.10;;;;;;461153;258;1076;-45
2021/05/24 10:11:46;;;;;;;;;;;18.80;50.10;;;;;;461060;258;1237;-44
2021/05/24 10:13:48;;;;;;;;;;;18.80;50.20;;;;;;461318;258;1122;-45
2021/05/24 10:15:49;;;;;;;;;;;18.80;50.20;;;;;;461326;258;1583;-44
2021/05/24 10:17:57;;;;;;;;;;;18.80;50.10;;;;;;461349;258;1245;-44
2021/05/24 10:19:51;;;;;;;;;;;18.80;50.20;;;;;;460717;258;2125;-44
2021/05/24 10:21:52;;;;;;;;;;;18.80;50.20;;;;;;461051;258;1217;-45
2021/05/24 10:23:54;;;;;;;;;;;18.80;50.10;;;;;;461257;258;1163;-44
2021/05/24 10:25:57;;;;;;;;;;;18.80;50.20;;;;;;461089;258;1410;-44
2021/05/24 10:27:57;;;;;;;;;;;18.80;50.10;;;;;;461271;258;1722;-44
2021/05/24 10:29:59;;;;;;;;;;;18.80;50.10;;;;;;461479;258;1115;-44
2021/05/24 10:32:00;;;;;;;;;;;18.80;50.20;;;;;;461303;258;1363;-44
2021/05/24 10:34:01;;;;;;;;;;;18.70;50.20;;;;;;461116;258;1100;-44
2021/05/24 10:36:02;;;;;;;;;;;18.70;50.30;;;;;;461126;258;1162;-44
2021/05/24 10:38:04;;;;;;;;;;;18.70;50.40;;;;;;461390;258;1083;-44
2021/05/24 10:40:06;;;;;;;;;;;18.60;50.40;;;;;;461133;258;2149;-45
2021/05/24 10:42:09;;;;;;;;;;;18.60;50.50;;;;;;461285;258;2249;-44
2021/05/24 10:44:08;;;;;;;;;;;18.60;50.60;;;;;;460938;258;1505;-44
2021/05/24 10:46:09;;;;;;;;;;;18.60;50.70;;;;;;460997;258;1236;-44
2021/05/24 10:48:10;;;;;;;;;;;18.60;50.60;;;;;;461105;258;1257;-45
2021/05/24 10:50:11;;;;;;;;;;;18.60;50.50;;;;;;461152;258;1089;-45
2021/05/24 10:52:13;;;;;;;;;;;18.60;50.70;;;;;;461260;258;1116;-45
2021/05/24 10:54:14;;;;;;;;;;;18.60;50.60;;;;;;461159;258;1073;-44
2021/05/24 10:56:15;;;;;;;;;;;18.60;50.60;;;;;;461382;258;1117;-44
2021/05/24 10:58:17;;;;;;;;;;;18.50;50.70;;;;;;461330;258;2217;-44
2021/05/24 11:00:18;;;;;;;;;;;18.50;50.70;;;;;;461546;258;1071;-44
2021/05/24 11:02:19;;;;;;;;;;;18.60;50.70;;;;;;461534;258;1092;-44
2021/05/24 11:04:20;;;;;;;;;;;18.50;50.70;;;;;;461223;258;1085;-44
2021/05/24 11:06:23;;;;;;;;;;;18.50;50.70;;;;;;461140;258;1095;-44
2021/05/24 11:08:23;;;;;;;;;;;18.40;50.70;;;;;;461397;258;1983;-44
2021/05/24 11:10:24;;;;;;;;;;;18.50;50.70;;;;;;461314;258;1083;-44
2021/05/24 11:12:25;;;;;;;;;;;18.50;50.80;;;;;;461051;258;1207;-44
2021/05/24 11:14:27;;;;;;;;;;;18.60;50.60;;;;;;461408;258;1037;-45
2021/05/24 11:16:28;;;;;;;;;;;19.10;49.40;;;;;;461114;258;1138;-44
2021/05/24 11:18:29;;;;;;;;;;;19.50;48.10;;;;;;461170;258;2196;-45
2021/05/24 11:20:31;;;;;;;;;;;19.80;47.40;;;;;;461550;258;1071;-45
2021/05/24 11:22:33;;;;;;;;;;;20.00;46.80;;;;;;461392;258;1271;-45
2021/05/24 11:24:36;;;;;;;;;;;20.20;46.40;;;;;;461094;258;2666;-44
2021/05/24 11:26:36;;;;;;;;;;;20.30;46.10;;;;;;461077;258;1926;-45
2021/05/24 11:28:37;;;;;;;;;;;20.40;45.90;;;;;;461337;258;1161;-45
2021/05/24 11:30:39;;;;;;;;;;;20.50;45.80;;;;;;461135;258;1068;-45
2021/05/24 11:32:40;;;;;;;;;;;20.60;45.50;;;;;;461136;258;1224;-45
2021/05/24 11:34:41;;;;;;;;;;;20.60;45.30;;;;;;461374;258;1095;-45
2021/05/24 11:36:42;;;;;;;;;;;20.70;45.20;;;;;;461064;258;1246;-45
2021/05/24 11:38:44;;;;;;;;;;;20.70;45.10;;;;;;461006;258;2208;-45
2021/05/24 11:40:45;;;;;;;;;;;20.80;45.00;;;;;;461135;258;1236;-45
2021/05/24 11:42:47;;;;;;;;;;;20.90;44.90;;;;;;461136;258;1175;-44
2021/05/24 11:44:49;;;;;;;;;;;20.90;44.90;;;;;;461119;258;1196;-45
2021/05/24 11:46:49;;;;;;;;;;;20.90;44.80;;;;;;461073;258;2361;-45
2021/05/24 11:48:51;;;;;;;;;;;20.90;44.60;;;;;;461546;258;1018;-45
2021/05/24 11:50:52;;;;;;;;;;;21.00;44.60;;;;;;461130;258;1257;-44
2021/05/24 11:52:53;;;;;;;;;;;21.00;44.50;;;;;;461340;258;1140;-44
2021/05/24 11:54:55;;;;;;;;;;;21.10;44.50;;;;;;461555;258;1070;-45
2021/05/24 11:56:56;;;;;;;;;;;21.10;44.50;;;;;;461017;258;1077;-45